createdAt,value
2018-04-19T06:34:15.598Z,9.00
2018-04-19T06:35:15.537Z,15.70
2018-04-19T06:37:08.416Z,22.30
2018-04-19T06:38:08.392Z,17.00
2018-04-19T06:39:08.368Z,14.90
2018-04-19T06:40:08.352Z,8.90
2018-04-19T06:41:08.326Z,7.00
2018-04-19T06:42:08.309Z,11.30
2018-04-19T06:43:08.274Z,9.90
2018-04-19T06:44:08.256Z,9.90
2018-04-19T06:45:08.224Z,9.10
2018-04-19T06:46:08.213Z,11.50
2018-04-19T06:47:08.179Z,9.80
2018-04-19T06:48:08.162Z,13.70
2018-04-19T06:49:08.143Z,7.30
2018-04-19T06:50:08.107Z,5.80
2018-04-19T06:51:08.125Z,7.30
2018-04-19T06:52:08.076Z,13.70
2018-04-19T06:53:08.061Z,6.80
2018-04-19T06:54:08.036Z,8.70
2018-04-19T06:55:08.001Z,8.10
2018-04-19T06:56:07.978Z,8.00
2018-04-19T06:57:07.955Z,5.80
2018-04-19T06:58:07.934Z,5.90
2018-04-19T06:59:07.911Z,5.60
2018-04-19T07:00:07.887Z,5.70
2018-04-19T07:01:07.861Z,5.70
2018-04-19T07:02:07.860Z,5.90
2018-04-19T07:03:07.814Z,11.20
2018-04-19T07:04:08.802Z,7.00
2018-04-19T07:05:07.778Z,5.30
2018-04-19T07:06:07.748Z,5.60
2018-04-19T07:07:07.758Z,5.50
2018-04-19T07:08:07.707Z,5.00
2018-04-19T07:09:07.700Z,5.00
2018-04-19T07:10:07.670Z,5.20
2018-04-19T07:11:07.640Z,5.60
2018-04-19T07:12:07.810Z,5.10
2018-04-19T07:13:07.598Z,6.10
2018-04-19T07:14:07.583Z,6.00
2018-04-19T07:15:07.597Z,5.30
2018-04-19T07:16:07.531Z,4.90
2018-04-19T07:17:07.509Z,5.30
2018-04-19T07:18:07.482Z,5.90
2018-04-19T07:19:07.470Z,5.30
2018-04-19T07:20:07.433Z,5.10
2018-04-19T07:21:07.534Z,6.10
2018-04-19T07:22:07.393Z,6.70
2018-04-19T07:23:07.385Z,4.70
2018-04-19T07:24:07.348Z,5.30
2018-04-19T07:25:07.365Z,5.40
2018-04-19T07:26:07.307Z,5.80
2018-04-19T07:27:07.285Z,5.70
2018-04-19T07:28:07.264Z,5.30
2018-04-19T07:29:07.242Z,5.70
2018-04-19T07:30:07.209Z,5.20
2018-04-19T07:31:07.201Z,19.70
2018-04-19T07:32:07.279Z,50.20
2018-04-19T07:33:07.156Z,5.80
2018-04-19T07:34:07.127Z,5.50
2018-04-19T07:35:07.101Z,5.80
2018-04-19T07:36:07.086Z,5.20
2018-04-19T07:37:07.064Z,6.80
2018-04-19T07:38:07.043Z,5.30
2018-04-19T07:39:07.036Z,5.40
2018-04-19T07:40:06.991Z,5.00
2018-04-19T07:41:06.981Z,5.90
2018-04-19T07:42:06.955Z,5.20
2018-04-19T07:43:06.933Z,5.80
2018-04-19T07:44:06.908Z,4.90
2018-04-19T07:45:07.105Z,8.20
2018-04-19T07:46:06.919Z,23.20
2018-04-19T07:47:06.843Z,5.40
2018-04-19T07:48:06.825Z,5.70
2018-04-19T07:49:06.805Z,5.20
2018-04-19T07:50:06.781Z,8.40
2018-04-19T07:51:06.753Z,5.90
2018-04-19T07:52:06.827Z,5.90
2018-04-19T07:53:06.718Z,5.80
2018-04-19T07:54:06.692Z,6.30
2018-04-19T07:55:06.671Z,5.90
2018-04-19T07:56:06.657Z,4.50
2018-04-19T07:57:06.628Z,6.50
2018-04-19T07:58:06.608Z,5.90
2018-04-19T07:59:06.591Z,5.00
2018-04-19T08:00:06.557Z,5.50
2018-04-19T08:01:06.536Z,5.40
2018-04-19T08:02:06.524Z,5.10
2018-04-19T08:03:06.501Z,5.30
2018-04-19T08:04:06.480Z,5.20
2018-04-19T08:05:06.453Z,4.60
2018-04-19T08:06:06.435Z,5.60
2018-04-19T08:07:06.424Z,5.10
2018-04-19T08:08:06.393Z,5.60
2018-04-19T08:09:06.366Z,5.00
2018-04-19T08:10:06.357Z,5.30
2018-04-19T08:11:06.398Z,5.00
2018-04-19T08:12:06.303Z,5.50
2018-04-19T08:13:06.283Z,5.00
2018-04-19T08:14:06.269Z,4.80
2018-04-19T08:15:06.239Z,5.40
2018-04-19T08:16:06.224Z,5.20
2018-04-19T08:17:06.199Z,5.00
2018-04-19T08:18:06.185Z,4.80
2018-04-19T08:19:06.153Z,5.00
2018-04-19T08:20:06.139Z,4.80
2018-04-19T08:21:06.125Z,4.60
2018-04-19T08:22:06.094Z,4.40
2018-04-19T08:23:06.090Z,5.00
2018-04-19T08:24:06.047Z,4.40
2018-04-19T08:25:06.031Z,4.50
2018-04-19T08:26:06.011Z,4.90
2018-04-19T08:27:05.990Z,4.50
2018-04-19T08:28:05.968Z,4.40
2018-04-19T08:29:05.952Z,4.40
2018-04-19T08:30:05.947Z,4.60
2018-04-19T08:31:05.904Z,4.10
2018-04-19T08:32:05.888Z,5.00
2018-04-19T08:33:05.864Z,4.80
2018-04-19T08:34:05.845Z,4.60
2018-04-19T08:35:05.819Z,4.50
2018-04-19T08:36:05.813Z,5.00
2018-04-19T08:37:05.793Z,4.60
2018-04-19T08:38:05.767Z,4.60
2018-04-19T08:39:05.744Z,4.80
2018-04-19T08:40:05.728Z,4.60
2018-04-19T08:41:05.701Z,5.50
2018-04-19T08:42:05.680Z,4.80
2018-04-19T08:43:05.663Z,4.30
2018-04-19T08:44:05.637Z,4.50
2018-04-19T08:45:05.620Z,4.80
2018-04-19T08:46:05.596Z,4.50
2018-04-19T08:47:05.577Z,4.40
2018-04-19T08:48:05.558Z,4.20
2018-04-19T08:49:05.534Z,4.50
2018-04-19T08:50:05.518Z,4.60
2018-04-19T08:51:05.506Z,4.90
2018-04-19T08:52:05.489Z,4.70
2018-04-19T08:53:05.455Z,4.50
2018-04-19T08:54:05.434Z,4.70
2018-04-19T08:55:05.430Z,4.20
2018-04-19T08:56:05.395Z,4.60
2018-04-19T08:57:05.373Z,4.70
2018-04-19T08:58:05.353Z,4.70
2018-04-19T08:59:05.344Z,4.30
2018-04-19T09:00:05.318Z,4.60
2018-04-19T09:01:05.300Z,4.40
2018-04-19T09:02:05.283Z,4.50
2018-04-19T09:03:05.257Z,4.10
2018-04-19T09:04:05.238Z,4.50
2018-04-19T09:05:05.216Z,4.90
2018-04-19T09:06:05.197Z,4.90
2018-04-19T09:07:05.174Z,4.60
2018-04-19T09:08:05.157Z,4.50
2018-04-19T09:09:05.131Z,4.40
2018-04-19T09:10:05.117Z,4.70
2018-04-19T09:11:05.096Z,4.40
2018-04-19T09:12:05.069Z,4.90
2018-04-19T09:13:05.061Z,4.90
2018-04-19T09:14:05.043Z,4.00
2018-04-19T09:15:05.011Z,4.00
2018-04-19T09:16:04.999Z,3.90
2018-04-19T09:17:04.970Z,4.50
2018-04-19T09:18:04.956Z,4.00
2018-04-19T09:19:04.937Z,4.00
2018-04-19T09:20:04.916Z,4.20
2018-04-19T09:21:04.895Z,4.30
2018-04-19T09:22:04.879Z,4.20
2018-04-19T09:23:04.856Z,3.90
2018-04-19T09:24:04.841Z,4.50
2018-04-19T09:25:04.823Z,4.20
2018-04-19T09:26:04.797Z,4.30
2018-04-19T09:27:04.783Z,4.30
2018-04-19T09:28:04.760Z,4.50
2018-04-19T09:29:04.756Z,4.30
2018-04-19T09:30:04.722Z,4.10
2018-04-19T09:31:04.717Z,3.90
2018-04-19T09:32:04.683Z,4.20
2018-04-19T09:33:04.671Z,4.10
2018-04-19T09:34:04.642Z,3.80
2018-04-19T09:35:04.630Z,4.20
2018-04-19T09:36:04.610Z,3.50
2018-04-19T09:37:04.591Z,3.50
2018-04-19T09:38:04.569Z,3.20
2018-04-19T09:39:04.550Z,3.80
2018-04-19T09:40:04.526Z,4.00
2018-04-19T09:41:04.514Z,4.00
2018-04-19T09:42:04.496Z,3.60
2018-04-19T09:43:04.477Z,3.40
2018-04-19T09:44:04.454Z,3.30
2018-04-19T09:45:04.446Z,4.10
2018-04-19T09:46:04.418Z,3.30
2018-04-19T09:47:04.393Z,3.20
2018-04-19T09:48:04.383Z,3.00
2018-04-19T09:49:04.363Z,3.30
2018-04-19T09:50:04.345Z,3.00
2018-04-19T09:51:04.326Z,3.30
2018-04-19T09:52:04.295Z,3.20
2018-04-19T09:53:04.287Z,2.50
2018-04-19T09:54:04.355Z,2.90
2018-04-19T09:55:04.251Z,2.80
2018-04-19T09:56:04.230Z,2.60
2018-04-19T09:57:04.212Z,2.70
2018-04-19T09:58:04.191Z,2.90
2018-04-19T09:59:04.190Z,2.90
2018-04-19T10:00:04.152Z,2.60
2018-04-19T10:01:04.143Z,2.20
2018-04-19T10:02:04.114Z,2.40
2018-04-19T10:03:04.097Z,2.40
2018-04-19T10:04:04.124Z,2.40
2018-04-19T10:05:04.065Z,2.70
2018-04-19T10:06:04.040Z,2.70
2018-04-19T10:07:04.026Z,2.90
2018-04-19T10:08:04.008Z,2.60
2018-04-19T10:09:03.984Z,2.20
2018-04-19T10:10:03.979Z,2.30
2018-04-19T10:11:03.959Z,2.50
2018-04-19T10:12:03.936Z,2.50
2018-04-19T10:13:03.926Z,2.50
2018-04-19T10:14:03.900Z,2.50
2018-04-19T10:15:03.886Z,2.70
2018-04-19T10:16:03.888Z,2.00
2018-04-19T10:17:03.861Z,2.40
2018-04-19T10:18:03.826Z,2.30
2018-04-19T10:19:03.810Z,2.40
2018-04-19T10:20:03.787Z,2.70
2018-04-19T10:21:03.780Z,2.40
2018-04-19T10:22:03.765Z,2.50
2018-04-19T10:23:03.739Z,2.90
2018-04-19T10:24:03.715Z,2.90
2018-04-19T10:25:03.754Z,2.30
2018-04-19T10:26:03.678Z,2.40
2018-04-19T10:27:03.668Z,2.40
2018-04-19T10:28:03.650Z,1.80
2018-04-19T10:29:03.643Z,2.40
2018-04-19T10:30:03.607Z,1.80
2018-04-19T10:31:03.591Z,1.70
2018-04-19T10:32:03.577Z,1.70
2018-04-19T10:33:03.563Z,1.90
2018-04-19T10:34:03.548Z,1.70
2018-04-19T10:35:03.523Z,2.10
2018-04-19T10:36:03.508Z,2.20
2018-04-19T10:37:03.486Z,2.30
2018-04-19T10:38:03.473Z,2.10
2018-04-19T10:39:03.448Z,1.90
2018-04-19T10:40:03.438Z,1.80
2018-04-19T10:41:03.424Z,2.10
2018-04-19T10:42:03.411Z,2.10
2018-04-19T10:43:03.383Z,2.30
2018-04-19T10:44:03.363Z,2.10
2018-04-19T10:45:03.352Z,1.80
2018-04-19T10:46:03.355Z,1.70
2018-04-19T10:47:03.371Z,1.70
2018-04-19T10:48:03.298Z,1.50
2018-04-19T10:49:03.284Z,1.60
2018-04-19T10:50:03.264Z,1.80
2018-04-19T10:51:03.243Z,1.80
2018-04-19T10:52:03.222Z,1.70
2018-04-19T10:53:03.202Z,2.20
2018-04-19T10:54:03.206Z,1.90
2018-04-19T10:55:03.171Z,1.70
2018-04-19T10:56:03.157Z,1.70
2018-04-19T10:57:03.143Z,1.70
2018-04-19T10:58:03.118Z,1.80
2018-04-19T10:59:03.107Z,1.90
2018-04-19T11:00:03.088Z,1.90
2018-04-19T11:01:03.072Z,1.80
2018-04-19T11:02:03.049Z,1.80
2018-04-19T11:03:03.035Z,1.60
2018-04-19T11:04:03.015Z,1.60
2018-04-19T11:05:02.993Z,1.90
2018-04-19T11:06:02.986Z,1.70
2018-04-19T11:07:02.973Z,2.00
2018-04-19T11:08:02.951Z,1.60
2018-04-19T11:09:02.938Z,1.60
2018-04-19T11:10:02.922Z,1.80
2018-04-19T11:11:02.897Z,2.10
2018-04-19T11:12:02.882Z,2.30
2018-04-19T11:13:02.859Z,2.30
2018-04-19T11:14:02.847Z,2.30
2018-04-19T11:15:02.839Z,2.20
2018-04-19T11:16:02.873Z,2.40
2018-04-19T11:17:02.788Z,2.60
2018-04-19T11:18:02.781Z,2.80
2018-04-19T11:19:02.757Z,2.50
2018-04-19T11:20:02.748Z,2.90
2018-04-19T11:21:02.720Z,3.20
2018-04-19T11:22:02.701Z,3.00
2018-04-19T11:23:02.691Z,3.10
2018-04-19T11:24:02.676Z,2.80
2018-04-19T11:25:02.661Z,3.10
2018-04-19T11:26:02.636Z,2.90
2018-04-19T11:27:02.627Z,3.20
2018-04-19T11:28:02.602Z,3.00
2018-04-19T11:29:02.595Z,3.00
2018-04-19T11:30:02.566Z,3.00
2018-04-19T11:31:02.618Z,2.80
2018-04-19T11:32:02.552Z,2.60
2018-04-19T11:33:02.520Z,3.00
2018-04-19T11:34:02.505Z,3.10
2018-04-19T11:35:02.480Z,2.70
2018-04-19T11:36:02.472Z,3.10
2018-04-19T11:37:02.449Z,2.80
2018-04-19T11:38:02.445Z,3.20
2018-04-19T11:39:02.496Z,2.40
2018-04-19T11:40:02.402Z,2.80
2018-04-19T11:41:02.392Z,2.90
2018-04-19T11:42:02.498Z,2.60
2018-04-19T11:43:02.352Z,3.30
2018-04-19T11:44:02.335Z,2.40
2018-04-19T11:45:02.317Z,2.70
2018-04-19T11:46:02.305Z,2.80
2018-04-19T11:47:02.286Z,2.90
2018-04-19T11:48:02.304Z,2.20
2018-04-19T11:49:02.248Z,2.90
2018-04-19T11:50:02.244Z,2.90
2018-04-19T11:51:02.215Z,2.70
2018-04-19T11:52:02.268Z,3.00
2018-04-19T11:53:02.181Z,2.40
2018-04-19T11:54:02.170Z,2.30
2018-04-19T11:55:02.146Z,2.50
2018-04-19T11:56:02.138Z,2.20
2018-04-19T11:57:02.125Z,2.40
2018-04-19T11:58:02.100Z,3.00
2018-04-19T11:59:02.080Z,2.50
2018-04-19T12:00:02.064Z,2.90
2018-04-19T12:01:02.135Z,2.30
2018-04-19T12:02:02.072Z,2.80
2018-04-19T12:03:02.019Z,2.40
2018-04-19T12:04:02.002Z,2.30
2018-04-19T12:05:01.994Z,2.90
2018-04-19T12:06:01.964Z,2.40
2018-04-19T12:07:01.959Z,2.30
2018-04-19T12:08:01.934Z,2.40
2018-04-19T12:09:01.983Z,2.00
2018-04-19T12:10:01.913Z,2.30
2018-04-19T12:11:01.904Z,2.10
2018-04-19T12:12:01.888Z,2.20
2018-04-19T12:13:01.855Z,2.00
2018-04-19T12:14:01.838Z,1.90
2018-04-19T12:15:01.815Z,2.20
2018-04-19T12:16:01.814Z,2.10
2018-04-19T12:17:01.792Z,2.20
2018-04-19T12:18:01.768Z,2.30
2018-04-19T12:19:01.755Z,2.20
2018-04-19T12:20:01.739Z,2.10
2018-04-19T12:21:01.738Z,2.10
2018-04-19T12:22:01.715Z,2.20
2018-04-19T12:23:01.689Z,1.90
2018-04-19T12:24:01.674Z,2.30
2018-04-19T12:25:01.666Z,1.90
2018-04-19T12:26:01.636Z,2.00
2018-04-19T12:27:01.738Z,1.70
2018-04-19T12:28:01.730Z,1.90
2018-04-19T12:29:01.588Z,2.20
2018-04-19T12:30:01.575Z,1.90
2018-04-19T12:31:01.824Z,2.40
2018-04-19T12:32:01.547Z,2.50
2018-04-19T12:33:01.532Z,1.90
2018-04-19T12:34:01.516Z,2.20
2018-04-19T12:35:01.491Z,2.10
2018-04-19T12:36:01.479Z,2.20
2018-04-19T12:37:01.461Z,1.90
2018-04-19T12:38:01.454Z,1.80
2018-04-19T12:39:01.433Z,2.30
2018-04-19T12:40:01.435Z,1.70
2018-04-19T12:41:01.399Z,2.10
2018-04-19T12:42:01.385Z,2.20
2018-04-19T12:43:01.368Z,2.10
2018-04-19T12:44:01.357Z,2.30
2018-04-19T12:45:01.332Z,2.20
2018-04-19T12:46:01.321Z,2.30
2018-04-19T12:47:01.308Z,2.20
2018-04-19T12:48:01.297Z,2.30
2018-04-19T12:49:01.284Z,1.80
2018-04-19T12:50:01.266Z,2.20
2018-04-19T12:51:01.239Z,2.20
2018-04-19T12:52:01.236Z,2.30
2018-04-19T12:53:01.208Z,2.40
2018-04-19T12:54:01.198Z,2.20
2018-04-19T12:55:01.181Z,2.30
2018-04-19T12:56:01.164Z,2.20
2018-04-19T12:57:01.140Z,2.30
2018-04-19T12:58:01.128Z,2.90
2018-04-19T12:59:01.114Z,2.30
2018-04-19T13:00:01.099Z,2.30
2018-04-19T13:01:01.077Z,2.40
2018-04-19T13:02:01.058Z,2.50
2018-04-19T13:03:01.043Z,2.50
2018-04-19T13:04:01.028Z,2.50
2018-04-19T13:05:01.017Z,2.40
2018-04-19T13:06:01.014Z,2.70
2018-04-19T13:07:00.985Z,2.60
2018-04-19T13:08:00.965Z,2.60
2018-04-19T13:09:00.967Z,3.00
2018-04-19T13:10:01.566Z,2.60
2018-04-19T13:11:00.923Z,2.60
2018-04-19T13:12:00.905Z,2.50
2018-04-19T13:13:00.891Z,2.70
2018-04-19T13:14:00.877Z,3.10
2018-04-19T13:15:00.859Z,3.30
2018-04-19T13:16:00.840Z,2.80
2018-04-19T13:17:00.843Z,2.40
2018-04-19T13:18:00.824Z,2.70
2018-04-19T13:19:00.799Z,3.60
2018-04-19T13:20:00.964Z,2.80
2018-04-19T13:21:00.916Z,3.50
2018-04-19T13:22:00.745Z,3.50
2018-04-19T13:23:00.731Z,3.30
2018-04-19T13:24:00.714Z,2.90
2018-04-19T13:25:00.699Z,2.70
2018-04-19T13:26:00.830Z,2.80
2018-04-19T13:27:00.885Z,2.20
2018-04-19T13:28:00.761Z,2.80
2018-04-19T13:29:00.753Z,2.70
2018-04-19T13:30:00.759Z,2.60
2018-04-19T13:31:00.753Z,2.60
2018-04-19T13:32:00.695Z,2.90
2018-04-19T13:33:00.680Z,2.30
2018-04-19T13:34:00.664Z,2.30
2018-04-19T13:35:00.713Z,2.40
2018-04-19T13:36:00.627Z,2.40
2018-04-19T13:37:00.605Z,2.50
2018-04-19T13:38:00.591Z,2.50
2018-04-19T13:39:00.590Z,2.10
2018-04-19T13:40:00.573Z,1.80
2018-04-19T13:41:00.553Z,2.00
2018-04-19T13:42:00.445Z,1.80
2018-04-19T13:43:00.425Z,2.20
2018-04-19T13:44:00.410Z,2.20
2018-04-19T13:45:00.403Z,1.90
2018-04-19T13:46:00.370Z,1.90
2018-04-19T13:47:00.357Z,1.90
2018-04-19T13:48:00.340Z,1.90
2018-04-19T13:49:00.323Z,2.20
2018-04-19T13:50:00.318Z,2.40
2018-04-19T13:51:00.293Z,1.80
2018-04-19T13:52:00.275Z,2.10
2018-04-19T13:53:00.269Z,1.80
2018-04-19T13:54:00.248Z,2.20
2018-04-19T13:55:00.248Z,1.70
2018-04-19T13:56:00.218Z,1.80
2018-04-19T13:57:00.203Z,1.90
2018-04-19T13:58:00.181Z,1.60
2018-04-19T13:59:00.180Z,1.30
2018-04-19T14:00:00.148Z,1.70
2018-04-19T14:01:00.135Z,2.30
2018-04-19T14:02:00.131Z,1.70
2018-04-19T14:03:00.108Z,2.00
2018-04-19T14:04:00.079Z,1.50
2018-04-19T14:05:00.070Z,1.50
2018-04-19T14:06:00.046Z,1.50
2018-04-19T14:07:00.035Z,1.50
2018-04-19T14:08:00.014Z,1.90
2018-04-19T14:09:01.506Z,1.50
2018-04-19T14:09:59.983Z,2.00
2018-04-19T14:11:00.095Z,1.70
2018-04-19T14:11:59.962Z,1.70
2018-04-19T14:12:59.927Z,1.80
2018-04-19T14:13:59.980Z,1.70
2018-04-19T14:14:59.993Z,1.60
2018-04-19T14:15:59.890Z,1.60
2018-04-19T14:16:59.863Z,1.80
2018-04-19T14:17:59.846Z,1.80
2018-04-19T14:18:59.831Z,1.60
2018-04-19T14:19:59.963Z,1.80
2018-04-19T14:20:59.799Z,1.70
2018-04-19T14:21:59.784Z,1.70
2018-04-19T14:22:59.994Z,1.40
2018-04-19T14:23:59.839Z,1.60
2018-04-19T14:24:59.744Z,1.50
2018-04-19T14:25:59.731Z,1.70
2018-04-19T14:26:59.693Z,1.60
2018-04-19T14:27:59.777Z,1.40
2018-04-19T14:28:59.661Z,1.50
2018-04-19T14:29:59.634Z,1.70
2018-04-19T14:30:59.657Z,1.40
2018-04-19T14:31:59.607Z,1.70
2018-04-19T14:32:59.588Z,1.50
2018-04-19T14:33:59.566Z,1.50
2018-04-19T14:34:59.557Z,1.70
2018-04-19T14:35:59.534Z,1.70
2018-04-19T14:36:59.522Z,1.40
2018-04-19T14:37:59.534Z,1.50
2018-04-19T14:38:59.499Z,1.50
2018-04-19T14:39:59.476Z,1.30
2018-04-19T14:40:59.453Z,1.70
2018-04-19T14:41:59.434Z,1.50
2018-04-19T14:42:59.413Z,1.50
2018-04-19T14:43:59.404Z,1.70
2018-04-19T14:44:59.392Z,1.60
2018-04-19T14:45:59.358Z,1.50
2018-04-19T14:46:59.413Z,1.40
2018-04-19T14:47:59.328Z,1.60
2018-04-19T14:48:59.409Z,1.60
2018-04-19T14:49:59.298Z,1.70
2018-04-19T14:50:59.279Z,1.40
2018-04-19T14:51:59.257Z,1.80
2018-04-19T14:52:59.243Z,1.70
2018-04-19T14:53:59.220Z,1.80
2018-04-19T14:54:59.204Z,1.40
2018-04-19T14:55:59.225Z,1.50
2018-04-19T14:56:59.179Z,1.60
2018-04-19T14:57:59.165Z,1.40
2018-04-19T14:58:59.139Z,1.30
2018-04-19T14:59:59.115Z,1.50
2018-04-19T15:00:59.112Z,1.30
2018-04-19T15:01:59.086Z,1.50
2018-04-19T15:02:59.065Z,1.80
2018-04-19T15:03:59.057Z,1.30
2018-04-19T15:04:59.032Z,1.40
2018-04-19T15:05:59.024Z,1.40
2018-04-19T15:06:59.012Z,1.20
2018-04-19T15:07:58.977Z,1.30
2018-04-19T15:08:58.970Z,1.30
2018-04-19T15:09:58.944Z,1.40
2018-04-19T15:10:58.942Z,1.40
2018-04-19T15:11:58.920Z,1.20
2018-04-19T15:12:58.889Z,1.50
2018-04-19T15:13:58.893Z,1.20
2018-04-19T15:14:58.882Z,1.40
2018-04-19T15:15:58.847Z,1.20
2018-04-19T15:16:58.823Z,1.40
2018-04-19T15:17:58.815Z,1.30
2018-04-19T15:18:58.822Z,1.20
2018-04-19T15:19:58.792Z,1.20
2018-04-19T15:20:58.755Z,1.20
2018-04-19T15:21:58.741Z,1.30
2018-04-19T15:22:58.731Z,1.20
2018-04-19T15:23:58.700Z,1.40
2018-04-19T15:24:58.692Z,1.40
2018-04-19T15:25:58.677Z,1.30
2018-04-19T15:26:58.664Z,1.30
2018-04-19T15:27:58.648Z,1.30
2018-04-19T15:28:58.616Z,1.40
2018-04-19T15:29:58.599Z,1.20
2018-04-19T15:30:58.590Z,1.40
2018-04-19T15:31:58.581Z,1.30
2018-04-19T15:32:58.547Z,1.30
2018-04-19T15:33:58.529Z,1.20
2018-04-19T15:34:58.512Z,1.20
2018-04-19T15:35:58.508Z,1.60
2018-04-19T15:36:58.473Z,1.10
2018-04-19T15:37:58.463Z,1.10
2018-04-19T15:38:58.481Z,1.40
2018-04-19T15:39:58.435Z,1.00
2018-04-19T15:40:58.411Z,1.40
2018-04-19T15:41:58.382Z,1.10
2018-04-19T15:42:58.382Z,1.10
2018-04-19T15:43:58.358Z,1.20
2018-04-19T15:44:58.328Z,1.00
2018-04-19T15:45:58.319Z,1.40
2018-04-19T15:46:58.313Z,1.20
2018-04-19T15:47:58.289Z,1.40
2018-04-19T15:48:58.275Z,1.00
2018-04-19T15:49:58.333Z,1.10
2018-04-19T15:50:58.234Z,1.10
2018-04-19T15:51:58.209Z,1.30
2018-04-19T15:52:58.207Z,1.30
2018-04-19T15:53:58.177Z,1.20
2018-04-19T15:54:58.210Z,1.00
2018-04-19T15:55:58.166Z,1.00
2018-04-19T15:56:58.118Z,1.10
2018-04-19T15:57:58.109Z,1.10
2018-04-19T15:58:58.162Z,1.20
2018-04-19T15:59:58.108Z,1.00
2018-04-19T16:00:58.080Z,1.10
2018-04-19T16:01:58.094Z,1.30
2018-04-19T16:02:58.020Z,1.30
2018-04-19T16:03:57.997Z,1.00
2018-04-19T16:04:58.015Z,1.20
2018-04-19T16:05:57.967Z,1.10
2018-04-19T16:06:57.941Z,1.10
2018-04-19T16:07:57.933Z,1.00
2018-04-19T16:08:57.915Z,1.20
2018-04-19T16:09:57.899Z,1.30
2018-04-19T16:10:57.881Z,1.10
2018-04-19T16:11:57.870Z,1.10
2018-04-19T16:12:57.979Z,1.20
2018-04-19T16:13:57.953Z,1.10
2018-04-19T16:14:57.810Z,1.20
2018-04-19T16:15:57.796Z,1.10
2018-04-19T16:16:57.775Z,0.90
2018-04-19T16:17:57.765Z,0.90
2018-04-19T16:18:57.767Z,1.00
2018-04-19T16:19:57.739Z,1.00
2018-04-19T16:20:57.713Z,0.90
2018-04-19T16:21:57.696Z,1.30
2018-04-19T16:22:57.668Z,1.00
2018-04-19T16:23:57.690Z,1.20
2018-04-19T16:24:57.650Z,0.90
2018-04-19T16:25:57.617Z,1.00
2018-04-19T16:26:57.645Z,1.00
2018-04-19T16:27:57.620Z,1.20
2018-04-19T16:28:57.567Z,1.00
2018-04-19T16:29:57.550Z,1.40
2018-04-19T16:30:57.522Z,1.50
2018-04-19T16:31:57.507Z,1.20
2018-04-19T16:32:57.500Z,1.40
2018-04-19T16:33:57.479Z,1.00
2018-04-19T16:34:57.458Z,1.10
2018-04-19T16:35:57.437Z,1.40
2018-04-19T16:36:57.503Z,1.40
2018-04-19T16:37:57.427Z,1.60
2018-04-19T16:38:57.384Z,1.10
2018-04-19T16:39:57.363Z,1.50
2018-04-19T16:40:57.342Z,1.40
2018-04-19T16:41:57.372Z,1.50
2018-04-19T16:42:57.539Z,1.30
2018-04-19T16:43:57.299Z,1.50
2018-04-19T16:44:57.281Z,1.70
2018-04-19T16:45:57.255Z,1.50
2018-04-19T16:46:57.248Z,1.40
2018-04-19T16:47:57.228Z,1.30
2018-04-19T16:48:57.205Z,1.30
2018-04-19T16:49:57.195Z,1.80
2018-04-19T16:50:57.179Z,1.70
2018-04-19T16:51:57.159Z,1.60
2018-04-19T16:52:57.135Z,1.80
2018-04-19T16:53:57.136Z,1.60
2018-04-19T16:54:57.111Z,1.50
2018-04-19T16:55:57.091Z,1.80
2018-04-19T16:56:57.081Z,1.50
2018-04-19T16:57:57.055Z,1.60
2018-04-19T16:58:57.638Z,1.70
2018-04-19T16:59:57.023Z,1.90
2018-04-19T17:00:57.001Z,1.80
2018-04-19T17:01:56.995Z,1.60
2018-04-19T17:02:56.972Z,1.70
2018-04-19T17:03:56.958Z,1.90
2018-04-19T17:04:56.945Z,1.90
2018-04-19T17:05:56.924Z,1.60
2018-04-19T17:06:56.915Z,1.60
2018-04-19T17:07:56.890Z,1.70
2018-04-19T17:08:56.886Z,1.80
2018-04-19T17:09:56.857Z,1.70
2018-04-19T17:10:56.879Z,1.70
2018-04-19T17:11:56.836Z,1.90
2018-04-19T17:12:56.815Z,1.70
2018-04-19T17:13:56.814Z,1.90
2018-04-19T17:14:56.787Z,1.80
2018-04-19T17:15:56.773Z,1.60
2018-04-19T17:16:56.756Z,1.70
2018-04-19T17:17:56.748Z,1.60
2018-04-19T17:18:56.725Z,2.10
2018-04-19T17:19:56.704Z,1.80
2018-04-19T17:20:56.688Z,1.70
2018-04-19T17:21:56.751Z,2.00
2018-04-19T17:22:56.664Z,2.00
2018-04-19T17:23:56.641Z,1.60
2018-04-19T17:24:56.633Z,2.00
2018-04-19T17:25:56.612Z,1.80
2018-04-19T17:26:56.598Z,1.90
2018-04-19T17:27:56.587Z,1.80
2018-04-19T17:28:56.564Z,1.90
2018-04-19T17:29:56.556Z,1.80
2018-04-19T17:30:56.542Z,1.80
2018-04-19T17:31:56.524Z,2.00
2018-04-19T17:32:56.503Z,2.00
2018-04-19T17:33:56.487Z,1.70
2018-04-19T17:34:56.477Z,1.80
2018-04-19T17:35:56.466Z,2.00
2018-04-19T17:36:56.451Z,2.00
2018-04-19T17:37:56.432Z,1.60
2018-04-19T17:38:56.419Z,1.80
2018-04-19T17:39:56.398Z,1.70
2018-04-19T17:40:56.385Z,1.80
2018-04-19T17:41:56.368Z,1.70
2018-04-19T17:42:56.352Z,1.90
2018-04-19T17:43:56.338Z,2.10
2018-04-19T17:44:56.328Z,1.80
2018-04-19T17:45:56.311Z,1.50
2018-04-19T17:46:56.286Z,2.10
2018-04-19T17:47:56.279Z,1.90
2018-04-19T17:48:56.257Z,1.80
2018-04-19T17:49:56.240Z,2.00
2018-04-19T17:50:56.226Z,1.90
2018-04-19T17:51:56.205Z,1.90
2018-04-19T17:52:56.193Z,1.90
2018-04-19T17:53:56.186Z,2.30
2018-04-19T17:54:56.166Z,1.90
2018-04-19T17:55:56.147Z,2.10
2018-04-19T17:56:56.132Z,2.40
2018-04-19T17:57:56.117Z,1.80
2018-04-19T17:58:56.094Z,2.20
2018-04-19T17:59:56.085Z,1.90
2018-04-19T18:00:56.064Z,1.80
2018-04-19T18:01:56.055Z,1.60
2018-04-19T18:02:56.084Z,2.00
2018-04-19T18:03:56.058Z,2.00
2018-04-19T18:04:56.004Z,1.90
2018-04-19T18:05:55.985Z,1.90
2018-04-19T18:06:55.974Z,1.70
2018-04-19T18:07:55.956Z,2.00
2018-04-19T18:08:55.936Z,1.80
2018-04-19T18:09:55.920Z,1.70
2018-04-19T18:10:55.897Z,1.70
2018-04-19T18:11:55.893Z,2.20
2018-04-19T18:12:55.869Z,2.10
2018-04-19T18:13:55.850Z,2.20
2018-04-19T18:14:55.833Z,1.60
2018-04-19T18:15:55.826Z,1.80
2018-04-19T18:16:55.856Z,2.10
2018-04-19T18:17:55.781Z,1.90
2018-04-19T18:18:55.768Z,2.00
2018-04-19T18:19:55.752Z,1.60
2018-04-19T18:20:55.734Z,1.90
2018-04-19T18:21:55.721Z,1.90
2018-04-19T18:22:55.754Z,1.70
2018-04-19T18:23:55.706Z,1.40
2018-04-19T18:24:55.664Z,1.60
2018-04-19T18:25:55.651Z,1.60
2018-04-19T18:26:55.630Z,1.80
2018-04-19T18:27:55.631Z,1.50
2018-04-19T18:28:55.598Z,1.50
2018-04-19T18:29:55.579Z,1.80
2018-04-19T18:30:55.561Z,1.50
2018-04-19T18:31:55.542Z,1.60
2018-04-19T18:32:55.532Z,1.90
2018-04-19T18:33:55.506Z,1.60
2018-04-19T18:34:55.496Z,1.70
2018-04-19T18:35:55.470Z,1.80
2018-04-19T18:36:55.498Z,1.90
2018-04-19T18:37:55.435Z,1.80
2018-04-19T18:38:55.418Z,2.00
2018-04-19T18:39:55.410Z,1.70
2018-04-19T18:40:55.390Z,1.80
2018-04-19T18:41:55.367Z,2.10
2018-04-19T18:42:55.349Z,1.80
2018-04-19T18:43:55.338Z,1.80
2018-04-19T18:44:55.332Z,2.00
2018-04-19T18:45:55.297Z,1.40
2018-04-19T18:46:55.285Z,1.90
2018-04-19T18:47:55.265Z,2.20
2018-04-19T18:48:55.265Z,2.20
2018-04-19T18:49:55.229Z,2.00
2018-04-19T18:50:55.213Z,2.20
2018-04-19T18:51:55.195Z,1.80
2018-04-19T18:52:55.179Z,1.90
2018-04-19T18:53:55.153Z,1.90
2018-04-19T18:54:55.135Z,1.70
2018-04-19T18:55:55.115Z,1.90
2018-04-19T18:56:55.115Z,1.90
2018-04-19T18:57:55.090Z,1.90
2018-04-19T18:58:55.068Z,1.80
2018-04-19T18:59:55.050Z,2.00
2018-04-19T19:00:55.033Z,2.00
2018-04-19T19:01:55.004Z,1.90
2018-04-19T19:02:54.992Z,2.30
2018-04-19T19:03:54.969Z,2.10
2018-04-19T19:04:54.962Z,1.70
2018-04-19T19:05:54.936Z,2.00
2018-04-19T19:06:54.925Z,2.10
2018-04-19T19:07:54.893Z,1.90
2018-04-19T19:08:54.889Z,2.20
2018-04-19T19:09:54.871Z,2.30
2018-04-19T19:10:54.844Z,1.90
2018-04-19T19:11:54.826Z,1.90
2018-04-19T19:12:54.810Z,2.40
2018-04-19T19:13:54.792Z,2.10
2018-04-19T19:14:54.761Z,2.30
2018-04-19T19:15:54.753Z,1.80
2018-04-19T19:16:54.732Z,2.10
2018-04-19T19:17:54.718Z,3.40
2018-04-19T19:18:54.693Z,1.80
2018-04-19T19:19:54.676Z,2.00
2018-04-19T19:20:54.659Z,3.20
2018-04-19T19:21:54.633Z,1.90
2018-04-19T19:22:54.613Z,1.90
2018-04-19T19:23:54.645Z,2.70
2018-04-19T19:24:54.578Z,2.30
2018-04-19T19:25:54.559Z,3.40
2018-04-19T19:26:54.543Z,2.10
2018-04-19T19:27:54.533Z,3.10
2018-04-19T19:28:54.499Z,6.80
2018-04-19T19:29:54.487Z,9.90
2018-04-19T19:30:54.468Z,8.50
2018-04-19T19:31:54.443Z,2.20
2018-04-19T19:32:54.424Z,2.20
2018-04-19T19:33:54.406Z,11.80
2018-04-19T19:34:54.382Z,5.60
2018-04-19T19:35:54.371Z,2.10
2018-04-19T19:36:54.359Z,3.60
2018-04-19T19:37:54.327Z,2.00
2018-04-19T19:38:54.303Z,2.00
2018-04-19T19:39:54.342Z,2.20
2018-04-19T19:40:54.271Z,1.90
2018-04-19T19:41:54.250Z,16.70
2018-04-19T19:42:54.226Z,8.80
2018-04-19T19:43:54.213Z,4.60
2018-04-19T19:44:54.192Z,16.70
2018-04-19T19:45:54.193Z,3.90
2018-04-19T19:46:54.156Z,8.70
2018-04-19T19:47:54.130Z,11.50
2018-04-19T19:48:54.121Z,4.80
2018-04-19T19:49:54.091Z,2.10
2018-04-19T19:50:54.071Z,4.50
2018-04-19T19:51:54.053Z,10.60